Latest Weather Observations for Low Isles

IDQ60801

Issued at 8:02 pm EST Wednesday 2 September 2015 (issued every 30 minutes, with the page automatically refreshed every 10 minutes)

About weather observations | Map of weather stations | Latest weather observations for QLD | Other Formats
Station Details ID: 031037 Name: LOW ISLES LIGHTHOUSE Lat: -16.38 Lon: 145.56 Height: 2.9 m
Data from the previous 72 hours. | See also: Recent months at Low Isles
Date/Time
EST
Temp
°C
App
Temp
°C
Dew
Point
Rel
Hum
%
Delta-T
°C
Wind Press
QNH
hPa
Press
MSL
hPa
Rain
since 9 am
mm
Dir
 
Spd
km/h
Gust
km/h
Spd
kts
Gust
kts
02/07:30pm 24.8 25.5 20.5 77 2.8 NNE 17 19 9 10 1016.2 - 0.0
02/07:00pm 24.9 25.7 20.6 77 2.8 N 17 19 9 10 1015.9 - 0.0
02/06:30pm 25.0 25.5 20.0 74 3.2 NNE 17 20 9 11 1015.6 - 0.0
02/06:00pm 25.5 26.7 19.9 71 3.6 NNE 13 15 7 8 1015.4 1015.3 0.0
02/05:30pm 26.2 27.5 20.1 69 4.0 NNE 13 15 7 8 1015.3 - 0.0
02/05:00pm 27.0 28.6 19.9 65 4.6 NNE 11 15 6 8 1015.3 - 0.0
02/04:30pm 28.5 29.7 20.0 60 5.6 NE 13 17 7 9 1015.2 - 0.0
02/04:00pm 29.4 30.3 20.0 57 6.2 NE 15 19 8 10 1015.2 - 0.0
02/03:30pm 29.8 31.0 19.8 55 6.6 NE 13 17 7 9 1015.2 - 0.0
02/03:00pm 30.9 32.2 20.2 53 7.1 NE 13 15 7 8 1015.5 1015.4 0.0
02/02:30pm 30.4 32.3 19.7 52 7.0 NE 9 11 5 6 1016.0 - 0.0
02/02:00pm 30.7 32.0 19.4 51 7.4 NE 11 15 6 8 1016.3 - 0.0
02/01:30pm 30.6 31.5 19.3 51 7.4 ENE 13 15 7 8 1016.8 - 0.0
02/01:00pm 31.1 32.6 19.8 51 7.4 NE 11 15 6 8 1017.4 - 0.0
02/12:30pm 30.7 32.6 19.7 52 7.2 NE 9 13 5 7 1017.9 - 0.0
02/12:00pm 30.0 31.8 20.3 56 6.4 NE 11 13 6 7 1018.5 1018.4 0.0
02/11:30am 30.4 33.2 20.9 57 6.3 NNE 7 11 4 6 1019.0 - 0.0
02/11:00am 29.4 31.6 20.3 58 6.0 NNE 9 11 5 6 1019.3 - 0.0
02/10:30am 28.5 31.3 20.8 63 5.1 NE 7 9 4 5 1019.6 - 0.0
02/10:00am 26.4 29.4 21.2 73 3.4 W 7 9 4 5 1019.9 - 0.0
02/09:30am 26.5 29.4 21.7 75 3.2 W 9 11 5 6 1019.8 - 0.0
02/09:00am 25.6 28.5 21.7 79 2.6 WNW 9 11 5 6 1019.5 1019.4 0.0
02/08:30am 24.3 27.2 21.0 82 2.2 NNW 7 9 4 5 1019.0 - 0.0
02/08:00am 23.9 26.8 20.6 82 2.2 NNW 6 7 3 4 1018.7 - 0.0
02/07:30am 23.8 26.2 20.9 84 1.9 WNW 9 11 5 6 1018.2 - 0.0
02/07:00am 23.5 24.9 20.4 83 2.0 NNE 13 15 7 8 1017.8 - 0.0
02/06:30am 22.8 24.0 20.0 84 1.8 NNE 13 15 7 8 1017.3 - 0.0
02/06:00am 22.6 23.8 19.9 85 1.7 NE 13 15 7 8 1016.8 1016.7 0.0
02/05:30am 22.9 24.2 20.1 84 1.8 NE 13 17 7 9 1016.3 - 0.0
02/05:00am 23.1 24.4 20.2 84 1.9 NNE 13 15 7 8 1016.0 - 0.0
02/04:30am 23.4 24.4 20.3 83 2.0 NNE 15 19 8 10 1015.9 - 0.0
02/04:00am 23.4 24.4 20.3 83 2.0 NNE 15 17 8 9 1016.0 - 0.0
02/03:30am 23.5 24.2 20.4 83 2.0 NNE 17 19 9 10 1016.0 - 0.0
02/03:00am 23.6 24.2 20.3 82 2.1 NNE 17 20 9 11 1016.0 1015.9 0.0
02/02:30am 23.8 24.4 20.3 81 2.3 NNE 17 20 9 11 1015.9 - 0.0
02/02:00am 24.2 24.6 20.7 81 2.3 NNE 19 22 10 12 1016.0 - 0.0
02/01:30am 24.3 24.5 20.6 80 2.4 NNE 20 24 11 13 1016.1 - 0.0
02/01:00am 24.4 24.2 20.5 79 2.5 NNE 22 26 12 14 1016.2 - 0.0
02/12:30am 24.4 25.3 20.9 81 2.3 NNE 17 22 9 12 1016.2 - 0.0
02/12:00am 24.3 25.0 20.4 79 2.5 NNE 17 19 9 10 1016.3 1016.2 0.0
 
Date/Time
EST
Temp
°C
App
Temp
°C
Dew
Point
Rel
Hum
%
Delta-T
°C
Wind Press
QNH
hPa
Press
MSL
hPa
Rain
since 9 am
mm
Dir
 
Spd
km/h
Gust
km/h
Spd
kts
Gust
kts
01/11:30pm 24.4 25.6 20.7 80 2.4 NNE 15 17 8 9 1016.3 - 0.0
01/11:00pm 24.3 25.3 21.0 82 2.2 NE 17 19 9 10 1016.2 - 0.0
01/10:30pm 23.7 24.8 20.4 82 2.1 NNE 15 17 8 9 1016.1 - 0.0
01/10:00pm 24.1 25.3 20.6 81 2.3 NNE 15 19 8 10 1016.0 - 0.0
01/09:30pm 24.2 25.0 20.7 81 2.3 NNE 17 20 9 11 1015.8 - 0.0
01/09:00pm 24.0 25.2 20.7 82 2.2 NNE 15 17 8 9 1015.5 1015.4 0.0
01/08:30pm 24.0 24.6 20.3 80 2.4 NNE 17 19 9 10 1015.0 - 0.0
01/08:00pm 24.1 24.6 20.0 78 2.6 NNE 17 19 9 10 1014.7 - 0.0
01/07:30pm 24.5 25.2 20.4 78 2.7 NNE 17 20 9 11 1014.4 - 0.0
01/07:00pm 24.6 24.7 20.3 77 2.8 NNE 20 22 11 12 1014.0 - 0.0
01/06:30pm 24.9 24.9 20.2 75 3.1 NNE 20 24 11 13 1013.8 - 0.0
01/06:00pm 25.2 25.2 20.2 74 3.3 NNE 20 22 11 12 1013.5 1013.4 0.0
01/05:30pm 25.9 25.9 20.2 71 3.7 NNE 20 20 11 11 1013.6 - 0.0
01/05:00pm 26.6 26.6 20.2 68 4.2 NNE 20 24 11 13 1013.3 - 0.0
01/04:30pm 28.2 28.5 20.5 63 5.1 NNE 19 22 10 12 1013.2 - 0.0
01/04:00pm 29.1 30.0 20.8 61 5.5 NNE 17 20 9 11 1013.2 - 0.0
01/03:30pm 29.5 30.0 20.1 57 6.2 NNE 17 20 9 11 1013.3 - 0.0
01/03:00pm 30.7 31.6 20.9 56 6.5 NE 17 20 9 11 1013.5 1013.4 0.0
01/02:30pm 30.1 30.6 20.1 55 6.6 NE 17 20 9 11 1013.8 - 0.0
01/02:00pm 30.8 31.3 20.1 53 7.1 NE 17 20 9 11 1014.3 - 0.0
01/01:30pm 31.3 31.7 19.9 50 7.5 NE 17 19 9 10 1014.7 - 0.0
01/01:00pm 30.7 32.3 20.0 52 7.1 NE 11 15 6 8 1015.2 - 0.0
01/12:30pm 29.6 31.7 20.2 57 6.2 ENE 9 13 5 7 1015.6 - 0.0
01/12:00pm 28.9 31.6 20.6 61 5.5 ENE 7 9 4 5 1016.3 1016.2 0.0
01/11:30am 28.6 31.3 20.6 62 5.3 NE 7 11 4 6 1016.8 - 0.0
01/11:00am 28.0 30.6 20.0 61 5.2 NE 6 9 3 5 1017.1 - 0.0
01/10:30am 26.6 30.4 20.9 71 3.8 N 2 6 1 3 1017.5 - 0.0
01/10:00am 25.4 28.8 20.2 73 3.4 W 2 7 1 4 1017.7 - 0.0
01/09:30am 24.7 27.3 20.4 77 2.8 WSW 7 9 4 5 1017.7 - 0.0
01/09:00am 24.1 26.3 20.4 80 2.4 WSW 9 11 5 6 1017.4 1017.3 0.0
01/08:30am 24.0 26.8 20.9 83 2.0 W 7 9 4 5 1017.1 - 0.0
01/08:00am 24.0 26.5 21.1 84 1.9 W 9 11 5 6 1016.8 - 0.0
01/07:30am 23.6 25.8 20.5 83 2.0 W 9 11 5 6 1016.6 - 0.0
01/07:00am 23.3 25.0 20.2 83 2.0 W 11 13 6 7 1016.0 - 0.0
01/06:30am 23.3 25.9 20.4 84 1.9 WNW 7 9 4 5 1015.7 - 0.0
01/06:00am 23.3 25.8 20.2 83 2.0 WSW 7 9 4 5 1015.3 1015.2 0.0
01/05:30am 23.2 25.0 20.3 84 1.9 WSW 11 13 6 7 1014.9 - 0.0
01/05:00am 23.2 25.1 20.5 85 1.8 WSW 11 13 6 7 1014.7 - 0.0
01/04:30am 22.8 25.7 19.8 83 1.9 NW 4 9 2 5 1014.5 - 0.0
01/04:00am 22.6 25.8 19.8 84 1.8 N 2 6 1 3 1014.5 - 0.0
01/03:30am 23.4 25.1 20.9 86 1.6 WSW 13 17 7 9 1014.6 - 0.0
01/03:00am 23.2 27.2 21.3 89 1.2 N 2 13 1 7 1014.7 1014.6 0.0
01/02:30am 22.5 24.7 19.7 84 1.8 NE 7 7 4 4 1014.7 - 0.0
01/02:00am 22.5 24.3 19.5 83 1.9 NE 9 9 5 5 1014.8 - 0.0
01/01:30am 22.7 24.9 19.7 83 1.9 NE 7 9 4 5 1015.1 - 0.0
01/01:00am 22.7 24.6 19.7 83 1.9 NE 9 11 5 6 1015.2 - 0.0
01/12:30am 22.7 24.6 19.7 83 1.9 NNE 9 11 5 6 1015.5 - 0.0
01/12:00am 22.8 24.8 20.0 84 1.8 NE 9 13 5 7 1015.6 1015.5 0.0
 
Date/Time
EST
Temp
°C
App
Temp
°C
Dew
Point
Rel
Hum
%
Delta-T
°C
Wind Press
QNH
hPa
Press
MSL
hPa
Rain
since 9 am
mm
Dir
 
Spd
km/h
Gust
km/h
Spd
kts
Gust
kts
31/11:30pm 22.8 24.7 19.8 83 1.9 NE 9 11 5 6 1015.8 - 0.0
31/11:00pm 22.9 24.4 19.7 82 2.1 NE 11 13 6 7 1015.7 - 0.0
31/10:30pm 23.2 24.5 20.2 83 1.9 NE 13 17 7 9 1015.7 - 0.0
31/10:00pm 23.1 24.4 20.1 83 1.9 NE 13 15 7 8 1015.7 - 0.0
31/09:30pm 22.9 24.3 19.5 81 2.2 ENE 11 15 6 8 1015.6 - 0.0
31/09:00pm 23.0 24.1 19.6 81 2.2 ENE 13 15 7 8 1015.4 1015.3 0.0
31/08:30pm 23.1 24.6 19.7 81 2.2 NE 11 13 6 7 1015.3 - 0.0
31/08:00pm 23.2 24.9 19.4 79 2.4 NE 9 13 5 7 1014.9 - 0.0
31/07:30pm 23.4 24.8 19.5 79 2.5 NE 11 15 6 8 1014.6 - 0.0
31/07:00pm 23.8 24.9 19.7 78 2.6 NE 13 15 7 8 1014.2 - 0.0
31/06:30pm 24.3 25.0 19.6 75 3.0 NE 15 20 8 11 1013.9 - 0.0
31/06:00pm 24.9 25.5 19.5 72 3.5 NE 15 17 8 9 1013.5 1013.4 0.0
31/05:30pm 25.6 26.3 19.7 70 3.8 ENE 15 19 8 10 1013.4 - 0.0
31/05:00pm 26.2 27.3 19.6 67 4.3 ENE 13 17 7 9 1013.1 - 0.0
31/04:30pm 27.3 27.7 19.9 64 4.8 ENE 17 20 9 11 1013.0 - 0.0
31/04:00pm 28.4 29.6 19.9 60 5.6 ENE 13 19 7 10 1013.0 - 0.0
31/03:30pm 28.4 29.1 19.6 59 5.7 E 15 20 8 11 1013.0 - 0.0
31/03:00pm 28.9 29.7 19.8 58 5.9 ENE 15 19 8 10 1013.4 1013.3 0.0
31/02:30pm 29.0 29.4 19.9 58 6.0 ENE 17 20 9 11 1013.9 - 0.0
31/02:00pm 29.0 30.1 19.6 57 6.1 ENE 13 17 7 9 1014.4 - 0.0
31/01:30pm 29.5 30.4 20.1 57 6.2 E 15 20 8 11 1014.7 - 0.0
31/01:00pm 29.7 31.5 20.3 57 6.2 ENE 11 15 6 8 1015.1 - 0.0
31/12:30pm 29.0 30.4 19.6 57 6.1 ENE 11 13 6 7 1015.4 - 0.0
31/12:00pm 29.5 31.8 20.6 58 5.9 NE 9 11 5 6 1015.7 1015.6 0.0
31/11:30am 28.3 31.0 20.3 62 5.3 NE 6 9 3 5 1016.1 - 0.0
31/11:00am 27.6 30.4 20.4 65 4.7 SSE 6 7 3 4 1016.6 - 0.0
31/10:30am 26.8 29.5 20.6 69 4.1 SSE 7 7 4 4 1017.0 - 0.0
31/10:00am 25.0 27.2 20.5 76 2.9 SSE 9 11 5 6 1017.1 - 0.0
31/09:30am 23.8 26.5 20.7 83 2.0 SSW 7 11 4 6 1017.1 - 0.0
31/09:00am 23.5 26.0 21.0 86 1.6 WSW 9 11 5 6 1017.0 1016.9 0.0
31/08:30am 23.3 25.5 20.4 84 1.9 W 9 11 5 6 1016.7 - 0.0
31/08:00am 23.4 25.5 20.9 86 1.6 WNW 11 13 6 7 1016.5 - 0.0
31/07:30am 23.1 25.1 20.8 87 1.5 WNW 11 13 6 7 1016.2 - 0.0
31/07:00am 23.0 25.1 20.9 88 1.4 WNW 11 13 6 7 1015.8 - 0.0
31/06:30am 22.9 24.9 20.8 88 1.4 WNW 11 13 6 7 1015.5 - 0.0
31/06:00am 22.8 25.2 20.9 89 1.2 W 9 13 5 7 1015.0 1014.9 0.0
31/05:30am 22.7 25.2 21.0 90 1.1 WNW 9 11 5 6 1014.7 - 0.0
31/05:00am 22.2 25.3 20.3 89 1.2 W 4 6 2 3 1014.5 - 0.0
31/04:30am 22.2 24.6 20.1 88 1.4 NW 7 11 4 6 1014.3 - 0.0
31/04:00am 22.7 25.0 20.6 88 1.4 NW 9 11 5 6 1014.4 - 0.0
31/03:30am 22.6 24.8 20.3 87 1.5 WNW 9 11 5 6 1014.4 - 0.0
31/03:00am 23.1 25.1 20.8 87 1.5 WNW 11 15 6 8 1014.5 1014.4 0.0
31/02:30am 23.2 25.3 20.9 87 1.5 WNW 11 13 6 7 1014.6 - 0.0
31/02:00am 23.5 25.6 21.0 86 1.6 NW 11 15 6 8 1014.8 - 0.0
31/01:30am 23.7 26.2 21.0 85 1.8 W 9 11 5 6 1015.1 - 0.0
31/01:00am 23.8 26.2 20.9 84 1.9 W 9 11 5 6 1015.2 - 0.0
31/12:30am 24.0 26.7 21.3 85 1.8 NW 9 11 5 6 1015.5 - 0.0
31/12:00am 23.3 25.3 19.9 81 2.2 NNE 9 11 5 6 1015.7 1015.6 0.0
 
Date/Time
EST
Temp
°C
App
Temp
°C
Dew
Point
Rel
Hum
%
Delta-T
°C
Wind Press
QNH
hPa
Press
MSL
hPa
Rain
since 9 am
mm
Dir
 
Spd
km/h
Gust
km/h
Spd
kts
Gust
kts
30/11:30pm 23.4 25.6 20.3 83 2.0 NNE 9 11 5 6 1015.8 - 0.0
30/11:00pm 23.3 25.9 20.4 84 1.9 NE 7 9 4 5 1015.7 - 0.0
30/10:30pm 23.1 25.7 20.4 85 1.7 E 7 7 4 4 1015.8 - 0.0
30/10:00pm 23.2 25.9 20.2 83 1.9 E 6 7 3 4 1015.9 - 0.0
30/09:30pm 23.5 26.0 20.2 82 2.1 E 7 9 4 5 1016.0 - 0.0
30/09:00pm 23.8 26.2 20.1 80 2.4 E 7 9 4 5 1015.9 1015.8 0.0
30/08:30pm 24.0 26.4 20.1 79 2.5 ENE 7 9 4 5 1015.7 - 0.0

Other Formats:

Comma delimited format used in spreadsheet applications
http://www.bom.gov.au/fwo/IDQ60801/IDQ60801.94285.axf

JavaScript Object Notation format (JSON) in row-major order
http://www.bom.gov.au/fwo/IDQ60801/IDQ60801.94285.json